Time;durP1;ratioP1;P1;durP2;ratioP2;P2;SDS_P1;SDS_P2;PMS_P1;PMS_P2;Temp;Humidity;BMP_temperature;BMP_pressure;BME280_temperature;BME280_humidity;BME280_pressure;Samples;Min_cycle;Max_cycle;Signal;HPM_P1;HPM_P2
2022/09/03 00:02:31;;;;;;;29.45;21.48;;;;;;;20.72;100.00;99800.72;5085787;28;20096;-29
2022/09/03 00:05:15;;;;;;;25.98;22.73;;;;;;;20.79;100.00;99795.72;5069195;28;20093;-30
2022/09/03 00:07:55;;;;;;;25.52;21.30;;;;;;;20.83;100.00;99804.88;5069039;28;20052;-34
2022/09/03 00:10:28;;;;;;;28.95;21.02;;;;;;;20.80;100.00;99800.06;5087483;28;20035;-34
2022/09/03 00:12:59;;;;;;;29.75;22.73;;;;;;;20.62;100.00;99785.41;5069231;28;20032;-31
2022/09/03 00:15:25;;;;;;;32.58;23.42;;;;;;;20.66;100.00;99805.41;5087244;28;20024;-31
2022/09/03 00:17:59;;;;;;;28.92;22.70;;;;;;;20.57;100.00;99809.00;5085907;28;20032;-29
2022/09/03 00:20:35;;;;;;;31.15;22.45;;;;;;;20.65;100.00;99816.53;5087316;28;20029;-29
2022/09/03 00:23:04;;;;;;;29.10;21.30;;;;;;;20.73;100.00;99810.44;5085704;28;20506;-32
2022/09/03 00:25:41;;;;;;;24.17;20.48;;;;;;;20.47;100.00;99788.28;5085932;28;20059;-30
2022/09/03 00:28:14;;;;;;;26.00;20.73;;;;;;;20.54;100.00;99793.34;5085850;28;20641;-29
2022/09/03 00:30:41;;;;;;;27.25;19.50;;;;;;;20.48;100.00;99796.13;5085555;28;20036;-30
2022/09/03 00:33:12;;;;;;;25.50;19.00;;;;;;;20.39;100.00;99802.47;5068866;28;20024;-32
2022/09/03 00:36:13;;;;;;;22.67;18.23;;;;;;;20.38;100.00;99807.09;5068971;28;20523;-29
2022/09/03 00:38:39;;;;;;;22.17;18.38;;;;;;;20.40;100.00;99804.09;5041654;28;20040;-32
2022/09/03 00:41:11;;;;;;;22.15;18.58;;;;;;;20.50;100.00;99808.59;5086629;28;20054;-34
2022/09/03 00:43:54;;;;;;;22.67;17.65;;;;;;;20.55;100.00;99805.78;5085462;28;20036;-31
2022/09/03 00:46:32;;;;;;;21.95;17.83;;;;;;;20.51;100.00;99810.19;5082105;28;20117;-31
2022/09/03 00:49:36;;;;;;;23.33;18.23;;;;;;;20.55;100.00;99805.78;5065488;28;20035;-28
2022/09/03 00:52:01;;;;;;;21.45;17.02;;;;;;;20.47;100.00;99804.53;5052001;28;20044;-29
2022/09/03 00:54:51;;;;;;;25.25;18.20;;;;;;;20.32;100.00;99793.91;5066972;28;20028;-34
2022/09/03 00:57:25;;;;;;;22.75;18.40;;;;;;;20.32;100.00;99812.88;5065027;28;20047;-29
2022/09/03 01:00:06;;;;;;;24.52;18.17;;;;;;;20.18;100.00;99794.59;5066627;28;20028;-30
2022/09/03 01:02:48;;;;;;;23.30;19.38;;;;;;;20.34;100.00;99806.06;5066592;28;20052;-28
2022/09/03 01:05:51;;;;;;;26.38;18.02;;;;;;;20.28;100.00;99796.38;5066649;28;20112;-29
2022/09/03 01:08:40;;;;;;;25.83;18.00;;;;;;;20.29;100.00;99806.13;5066423;28;20031;-29
2022/09/03 01:11:46;;;;;;;24.65;16.67;;;;;;;20.23;100.00;99788.34;5066590;28;20037;-30
2022/09/03 01:14:45;;;;;;;25.50;18.42;;;;;;;20.33;100.00;99799.03;5068985;28;20466;-30
2022/09/03 01:17:32;;;;;;;21.23;17.23;;;;;;;20.32;100.00;99800.13;5070085;28;20039;-32
2022/09/03 01:19:57;;;;;;;24.02;17.42;;;;;;;20.43;100.00;99793.50;5070439;28;20028;-33
2022/09/03 01:22:41;;;;;;;26.15;17.77;;;;;;;20.43;100.00;99793.50;5070066;28;20031;-29
2022/09/03 01:25:30;;;;;;;26.05;18.33;;;;;;;20.11;100.00;99780.63;5068750;28;20690;-30
2022/09/03 01:28:21;;;;;;;23.73;18.33;;;;;;;20.10;100.00;99789.03;5068652;28;20415;-34
2022/09/03 01:30:59;;;;;;;24.40;18.15;;;;;;;19.91;100.00;99791.69;5070134;28;20036;-29
2022/09/03 01:33:37;;;;;;;24.92;18.98;;;;;;;19.94;100.00;99796.50;5069714;28;20028;-34
2022/09/03 01:36:19;;;;;;;31.75;19.05;;;;;;;19.74;100.00;99802.97;5068698;28;20118;-30
2022/09/03 01:39:05;;;;;;;28.90;21.45;;;;;;;19.84;100.00;99802.88;5085553;28;20115;-29
2022/09/03 01:42:15;;;;;;;29.23;21.02;;;;;;;19.73;100.00;99798.63;5069914;28;20043;-37
2022/09/03 01:45:00;;;;;;;27.75;21.35;;;;;;;19.63;100.00;99805.72;5066227;28;20078;-34
2022/09/03 01:47:50;;;;;;;32.40;21.85;;;;;;;19.68;100.00;99811.09;5048323;28;20041;-33
2022/09/03 01:50:22;;;;;;;29.80;22.60;;;;;;;19.64;100.00;99798.44;5049849;28;20116;-31
2022/09/03 01:53:15;;;;;;;28.98;21.77;;;;;;;19.76;100.00;99808.91;5049498;28;20057;-34
2022/09/03 01:55:46;;;;;;;33.47;22.55;;;;;;;19.81;100.00;99806.94;5064857;28;20072;-28
2022/09/03 01:58:20;;;;;;;34.13;23.92;;;;;;;19.70;100.00;99808.09;5047681;28;20021;-29
2022/09/03 02:00:50;;;;;;;34.33;23.38;;;;;;;19.67;100.00;99808.66;5049550;28;20023;-33
2022/09/03 02:03:16;;;;;;;37.97;25.60;;;;;;;19.66;100.00;99797.03;5064502;28;20553;-36
2022/09/03 02:05:42;;;;;;;36.78;26.00;;;;;;;19.77;100.00;99824.03;5049406;28;20024;-29
2022/09/03 02:08:09;;;;;;;36.03;24.95;;;;;;;19.73;100.00;99812.16;5049246;28;20116;-32
2022/09/03 02:10:54;;;;;;;32.40;24.40;;;;;;;19.87;100.00;99819.31;5064446;28;20032;-37
2022/09/03 02:13:30;;;;;;;32.53;23.73;;;;;;;19.79;100.00;99806.41;5049492;28;20247;-30
2022/09/03 02:16:02;;;;;;;35.47;22.63;;;;;;;19.91;100.00;99811.44;5049273;28;20815;-31
2022/09/03 02:18:35;;;;;;;32.97;22.83;;;;;;;20.04;100.00;99821.59;5049269;28;20042;-30
2022/09/03 02:21:01;;;;;;;30.40;23.05;;;;;;;19.84;100.00;99797.44;5064018;28;20025;-30
2022/09/03 02:23:27;;;;;;;32.10;22.98;;;;;;;19.86;100.00;99814.22;5063545;28;20032;-32
2022/09/03 02:25:59;;;;;;;33.95;25.85;;;;;;;19.97;100.00;99812.19;5064510;28;20036;-30
2022/09/03 02:28:27;;;;;;;36.10;25.67;;;;;;;19.99;100.00;99829.75;5064353;28;20416;-30
2022/09/03 02:30:53;;;;;;;;;;;;;;;19.97;100.00;99831.94;5048069;28;20029;-28
2022/09/03 02:33:19;;;;;;;34.20;22.80;;;;;;;19.85;100.00;99836.94;5063818;28;19919;-28
2022/09/03 02:35:45;;;;;;;31.75;23.60;;;;;;;19.90;100.00;99823.38;5048660;28;20029;-30
2022/09/03 02:38:20;;;;;;;32.55;22.27;;;;;;;20.11;100.00;99839.38;5063879;28;20124;-32
2022/09/03 02:40:46;;;;;;;33.50;23.63;;;;;;;20.09;100.00;99841.56;5064345;28;20037;-30
2022/09/03 02:43:42;;;;;;;29.60;22.13;;;;;;;20.16;100.00;99837.41;5063786;28;20143;-29
2022/09/03 02:46:20;;;;;;;28.92;21.95;;;;;;;20.16;100.00;99840.13;5046265;28;20084;-29
2022/09/03 02:48:45;;;;;;;28.65;22.35;;;;;;;20.22;100.00;99852.50;5067610;28;20016;-29
2022/09/03 02:51:11;;;;;;;27.27;21.27;;;;;;;20.18;100.00;99843.34;5068455;28;20048;-31
2022/09/03 02:53:37;;;;;;;29.08;21.85;;;;;;;20.22;100.00;99825.41;5068568;28;20408;-30
2022/09/03 02:56:02;;;;;;;27.38;20.77;;;;;;;20.27;100.00;99832.69;5068707;28;20029;-37
2022/09/03 02:58:30;;;;;;;28.23;21.88;;;;;;;20.11;100.00;99842.09;5066878;28;20024;-29
2022/09/03 03:00:56;;;;;;;30.65;21.75;;;;;;;20.06;100.00;99835.63;5068633;28;20542;-32
2022/09/03 03:03:21;;;;;;;30.83;20.80;;;;;;;19.97;100.00;99834.63;5066674;28;20048;-29
2022/09/03 03:05:55;;;;;;;28.63;21.27;;;;;;;19.89;100.00;99832.56;5068566;28;20078;-32
2022/09/03 03:08:26;;;;;;;29.40;20.98;;;;;;;19.90;100.00;99830.66;5066769;28;20024;-34
2022/09/03 03:10:55;;;;;;;32.25;21.88;;;;;;;19.97;100.00;99823.81;5066430;28;20035;-30
2022/09/03 03:13:21;;;;;;;24.65;19.05;;;;;;;19.92;100.00;99821.19;5067801;28;20404;-29
2022/09/03 03:15:47;;;;;;;26.55;19.83;;;;;;;19.79;100.00;99832.66;5068599;28;20039;-34
2022/09/03 03:18:13;;;;;;;26.02;19.85;;;;;;;19.79;100.00;99827.25;5068167;28;20039;-32
2022/09/03 03:20:40;;;;;;;25.63;19.23;;;;;;;19.71;100.00;99822.47;5066515;28;20028;-30
2022/09/03 03:23:06;;;;;;;28.42;20.10;;;;;;;19.65;100.00;99827.88;5066047;28;20518;-29
2022/09/03 03:25:36;;;;;;;25.85;20.90;;;;;;;19.60;100.00;99811.72;5066262;28;20123;-28
2022/09/03 03:28:03;;;;;;;28.92;19.95;;;;;;;19.64;100.00;99820.88;5066612;28;20032;-34
2022/09/03 03:30:29;;;;;;;27.08;18.80;;;;;;;19.53;100.00;99819.34;5066377;28;20032;-34
2022/09/03 03:32:56;;;;;;;26.50;18.95;;;;;;;19.55;100.00;99817.16;5066434;28;20028;-30
2022/09/03 03:35:22;;;;;;;27.05;18.98;;;;;;;19.52;100.00;99833.16;5065816;28;20090;-31
2022/09/03 03:37:48;;;;;;;27.30;19.33;;;;;;;19.35;100.00;99828.16;5067980;28;20089;-29
2022/09/03 03:40:14;;;;;;;26.95;19.75;;;;;;;19.28;100.00;99813.06;5067424;28;20037;-33
2022/09/03 03:42:40;;;;;;;26.02;17.40;;;;;;;19.41;100.00;99827.00;5067724;28;20029;-29
2022/09/03 03:45:06;;;;;;;25.58;18.05;;;;;;;19.38;100.00;99822.19;5067951;28;20075;-29
2022/09/03 03:47:32;;;;;;;25.08;18.33;;;;;;;19.36;100.00;99829.78;5086091;28;20024;-29
2022/09/03 03:49:58;;;;;;;26.60;17.95;;;;;;;19.34;100.00;99831.94;5086210;28;20039;-30
2022/09/03 03:52:25;;;;;;;26.30;18.52;;;;;;;19.24;100.00;99816.63;5069298;28;20028;-36
2022/09/03 03:54:52;;;;;;;24.63;17.67;;;;;;;19.31;100.00;99832.50;5086080;28;20034;-33
2022/09/03 03:57:18;;;;;;;23.88;16.83;;;;;;;19.22;100.00;99835.81;5087300;28;20024;-31
2022/09/03 03:59:45;;;;;;;23.60;17.35;;;;;;;19.33;100.00;99836.56;5087730;28;20032;-30
2022/09/03 04:02:11;;;;;;;21.55;17.33;;;;;;;19.39;100.00;99829.19;5086085;28;20024;-29
2022/09/03 04:04:37;;;;;;;26.98;16.65;;;;;;;19.15;100.00;99813.72;5086058;28;20434;-28
2022/09/03 04:07:02;;;;;;;25.30;17.98;;;;;;;19.19;100.00;99833.69;5085519;28;20028;-30
2022/09/03 04:09:28;;;;;;;20.92;16.60;;;;;;;19.39;100.00;99834.59;5086805;28;20028;-29
2022/09/03 04:11:54;;;;;;;25.55;17.45;;;;;;;19.42;100.00;99836.75;5069571;28;20505;-29
2022/09/03 04:14:21;;;;;;;23.55;16.75;;;;;;;19.47;100.00;99832.13;5087257;28;20024;-31
2022/09/03 04:16:46;;;;;;;23.77;15.88;;;;;;;19.37;100.00;99823.25;5087501;28;20020;-30
2022/09/03 04:19:12;;;;;;;23.38;17.25;;;;;;;19.48;100.00;99827.50;5086792;28;20385;-36
2022/09/03 04:21:38;;;;;;;23.98;15.23;;;;;;;19.50;100.00;99852.38;5087493;28;20032;-29
2022/09/03 04:24:04;;;;;;;22.73;15.93;;;;;;;19.37;100.00;99831.38;5068657;28;20040;-29
2022/09/03 04:26:32;;;;;;;27.50;16.02;;;;;;;19.43;100.00;99832.94;5085939;28;20020;-29
2022/09/03 04:28:59;;;;;;;23.88;16.98;;;;;;;19.48;100.00;99849.16;5068972;28;20032;-29
2022/09/03 04:31:25;;;;;;;23.50;15.30;;;;;;;19.41;100.00;99843.25;5085743;28;20043;-30
2022/09/03 04:33:51;;;;;;;23.95;15.85;;;;;;;19.34;100.00;99846.28;5087124;28;20036;-31
2022/09/03 04:36:19;;;;;;;21.08;16.17;;;;;;;19.33;100.00;99857.38;5087109;28;20020;-29
2022/09/03 04:38:46;;;;;;;20.00;16.02;;;;;;;19.42;100.00;99869.19;5085848;28;20028;-30
2022/09/03 04:41:15;;;;;;;22.80;15.23;;;;;;;19.41;100.00;99864.88;5085441;28;20036;-30
2022/09/03 04:43:42;;;;;;;20.35;14.65;;;;;;;19.56;100.00;99861.25;5068903;28;20039;-29
2022/09/03 04:46:08;;;;;;;21.67;15.13;;;;;;;19.54;100.00;99855.31;5087276;28;20067;-28
2022/09/03 04:48:35;;;;;;;23.85;15.55;;;;;;;19.57;100.00;99869.06;5072307;28;20063;-29
2022/09/03 04:51:07;;;;;;;20.67;15.18;;;;;;;19.64;100.00;99874.97;5072085;28;20592;-31
2022/09/03 04:53:37;;;;;;;22.67;15.63;;;;;;;19.66;100.00;99872.00;5072684;28;20024;-29
2022/09/03 04:56:17;;;;;;;19.48;14.30;;;;;;;19.81;100.00;99874.56;5090679;28;20529;-35
2022/09/03 04:58:43;;;;;;;21.52;15.65;;;;;;;19.81;100.00;99879.97;5090994;28;20042;-31
2022/09/03 05:01:11;;;;;;;20.92;14.95;;;;;;;19.88;100.00;99879.66;5089115;28;20123;-29
2022/09/03 05:03:37;;;;;;;;;;;;;;;19.96;100.00;99887.16;5072790;28;20588;-30
2022/09/03 05:06:05;;;;;;;22.58;15.30;;;;;;;19.91;100.00;99881.78;5072502;28;19942;-30
2022/09/03 05:08:31;;;;;;;18.73;13.82;;;;;;;19.78;100.00;99877.06;5072089;28;20039;-31
2022/09/03 05:11:00;;;;;;;19.85;14.93;;;;;;;19.91;100.00;99889.91;5089419;28;20036;-30
2022/09/03 05:13:27;;;;;;;19.75;14.00;;;;;;;19.74;100.00;99884.13;5072231;28;20069;-31
2022/09/03 05:16:02;;;;;;;20.88;14.20;;;;;;;19.90;100.00;99892.91;5072167;28;20480;-31
2022/09/03 05:18:28;;;;;;;19.80;13.77;;;;;;;19.87;100.00;99897.78;5089212;28;20028;-29
2022/09/03 05:21:08;;;;;;;19.77;14.07;;;;;;;19.82;100.00;99894.34;5072420;28;20517;-29
2022/09/03 05:23:39;;;;;;;21.23;14.32;;;;;;;19.85;100.00;99908.09;5090513;28;20028;-30
2022/09/03 05:26:07;;;;;;;23.70;14.68;;;;;;;19.86;100.00;99892.69;5072019;28;20443;-29
2022/09/03 05:28:35;;;;;;;23.42;14.05;;;;;;;19.96;100.00;99903.41;5088746;28;20166;-31
2022/09/03 05:31:05;;;;;;;17.98;12.80;;;;;;;19.84;100.00;99901.06;5071498;28;20040;-34
2022/09/03 05:33:34;;;;;;;21.25;13.55;;;;;;;19.82;100.00;99886.22;5089767;28;20427;-29
2022/09/03 05:36:02;;;;;;;16.73;11.70;;;;;;;19.72;100.00;99886.31;5088892;28;20502;-37
2022/09/03 05:38:27;;;;;;;16.20;10.77;;;;;;;19.80;100.00;99889.22;5089183;28;20028;-30
2022/09/03 05:40:53;;;;;;;17.42;10.85;;;;;;;20.02;100.00;99904.97;5093456;28;20047;-29
2022/09/03 05:43:19;;;;;;;16.33;12.70;;;;;;;20.13;100.00;99891.34;5090128;28;20032;-31
2022/09/03 05:45:45;;;;;;;18.10;12.65;;;;;;;20.22;100.00;99905.84;5089696;28;20121;-29
2022/09/03 05:48:10;;;;;;;16.20;10.93;;;;;;;20.03;100.00;99900.38;5089677;28;20024;-29
2022/09/03 05:50:36;;;;;;;13.70;10.13;;;;;;;20.03;100.00;99898.47;5089637;28;20068;-29
2022/09/03 05:53:01;;;;;;;14.27;11.63;;;;;;;20.20;100.00;99913.44;5089476;28;20035;-32
2022/09/03 05:55:27;;;;;;;16.17;11.48;;;;;;;20.11;100.00;99909.78;5089667;28;20031;-32
2022/09/03 05:57:53;;;;;;;14.95;10.73;;;;;;;20.43;100.00;99919.97;5070562;28;20119;-32
2022/09/03 06:00:19;;;;;;;16.67;11.10;;;;;;;20.29;100.00;99909.03;5089112;28;20120;-29
2022/09/03 06:02:51;;;;;;;15.50;10.43;;;;;;;20.57;100.00;99928.22;5089714;28;20028;-29
2022/09/03 06:05:17;;;;;;;18.42;11.07;;;;;;;20.81;100.00;99929.03;5071288;28;20067;-31
2022/09/03 06:07:48;;;;;;;15.68;10.93;;;;;;;21.04;100.00;99932.81;5071060;28;20027;-30
2022/09/03 06:10:15;;;;;;;16.52;10.15;;;;;;;20.99;99.63;99921.22;5070934;28;20031;-30
2022/09/03 06:12:41;;;;;;;14.10;9.77;;;;;;;20.98;99.26;99925.03;5089509;28;20084;-29
2022/09/03 06:15:08;;;;;;;14.65;10.63;;;;;;;20.84;100.00;99935.78;5076300;28;20637;-32
2022/09/03 06:17:33;;;;;;;18.40;10.55;;;;;;;20.97;100.00;99932.34;5073142;28;20498;-30
2022/09/03 06:19:59;;;;;;;14.98;11.15;;;;;;;21.18;100.00;99932.88;5070990;28;20119;-28
2022/09/03 06:22:27;;;;;;;15.98;10.25;;;;;;;21.22;100.00;99933.09;5070847;28;20486;-31
2022/09/03 06:24:53;;;;;;;15.18;11.00;;;;;;;21.36;100.00;99930.47;5070684;28;20038;-30
2022/09/03 06:27:20;;;;;;;13.50;9.93;;;;;;;21.34;97.77;99924.53;5088950;28;20028;-30
2022/09/03 06:29:45;;;;;;;15.80;11.23;;;;;;;21.34;100.00;99932.69;5089376;28;20567;-28
2022/09/03 06:32:11;;;;;;;17.25;10.88;;;;;;;21.36;98.96;99920.44;5070813;28;20031;-29
2022/09/03 06:34:36;;;;;;;16.67;10.50;;;;;;;21.32;99.05;99932.16;5071013;28;20027;-32
2022/09/03 06:37:01;;;;;;;12.90;9.40;;;;;;;21.31;98.45;99938.66;5070159;28;20496;-32
2022/09/03 06:39:27;;;;;;;15.07;10.05;;;;;;;21.49;99.07;99921.59;5070557;28;20020;-34
2022/09/03 06:41:54;;;;;;;11.50;8.48;;;;;;;21.50;96.71;99922.44;5088946;28;20034;-31
2022/09/03 06:44:21;;;;;;;12.70;8.38;;;;;;;21.60;96.94;99927.69;5088642;28;20028;-29
2022/09/03 06:46:47;;;;;;;11.75;8.45;;;;;;;21.95;97.62;99926.28;5088517;28;20048;-28
2022/09/03 06:49:13;;;;;;;12.45;8.80;;;;;;;22.21;96.02;99939.41;5069999;28;20047;-36
2022/09/03 06:51:39;;;;;;;13.07;8.15;;;;;;;22.03;94.96;99939.19;5088708;28;20035;-31
2022/09/03 06:54:06;;;;;;;12.85;8.65;;;;;;;22.25;93.75;99948.59;5070191;28;20028;-29
2022/09/03 06:56:34;;;;;;;11.70;7.18;;;;;;;22.42;94.95;99958.91;5088620;28;20069;-29
2022/09/03 06:59:05;;;;;;;9.63;7.03;;;;;;;22.39;93.90;99959.50;5070123;28;20028;-37
2022/09/03 07:01:31;;;;;;;10.43;7.13;;;;;;;22.31;91.84;99955.53;5070238;28;20123;-30
2022/09/03 07:04:00;;;;;;;9.40;5.75;;;;;;;22.20;90.95;99940.53;5069848;28;20028;-32
2022/09/03 07:06:28;;;;;;;13.10;6.93;;;;;;;22.26;92.37;99952.94;5069802;28;20096;-33
2022/09/03 07:08:57;;;;;;;9.02;6.00;;;;;;;22.27;91.62;99951.81;5070157;28;20040;-30
2022/09/03 07:11:30;;;;;;;8.73;6.18;;;;;;;22.34;91.09;99952.25;5069300;28;20459;-32
2022/09/03 07:13:57;;;;;;;9.70;5.82;;;;;;;22.53;90.16;99956.78;5088125;28;20028;-32
2022/09/03 07:16:27;;;;;;;13.43;5.78;;;;;;;22.57;90.31;99957.78;5072508;28;20063;-30
2022/09/03 07:18:54;;;;;;;7.75;5.65;;;;;;;22.66;91.49;99964.16;5087911;28;20054;-33
2022/09/03 07:21:23;;;;;;;9.20;6.57;;;;;;;22.60;88.40;99951.78;5069954;28;20055;-28
2022/09/03 07:23:52;;;;;;;8.38;4.90;;;;;;;22.84;88.29;99960.53;5070010;28;20044;-34
2022/09/03 07:26:23;;;;;;;9.93;5.57;;;;;;;23.14;86.81;99966.44;5088036;28;20024;-31
2022/09/03 07:28:50;;;;;;;8.27;5.47;;;;;;;23.41;87.10;99962.03;5088034;28;20035;-35
2022/09/03 07:31:18;;;;;;;8.25;5.05;;;;;;;23.31;85.28;99962.28;5069367;28;20020;-35
2022/09/03 07:33:47;;;;;;;9.07;5.10;;;;;;;23.45;84.30;99952.16;5069616;28;20059;-32
2022/09/03 07:36:15;;;;;;;10.05;5.88;;;;;;;23.58;85.21;99956.75;5069443;28;20020;-30
2022/09/03 07:38:43;;;;;;;7.30;5.15;;;;;;;23.58;83.31;99970.34;5069655;28;20089;-31
2022/09/03 07:41:10;;;;;;;8.85;6.25;;;;;;;23.62;82.09;99963.19;5087489;28;20146;-30
2022/09/03 07:43:38;;;;;;;9.63;6.00;;;;;;;23.58;80.17;99962.19;5069345;28;20122;-29
2022/09/03 07:46:09;;;;;;;7.80;5.68;;;;;;;23.75;83.33;99969.69;5086990;28;20326;-31
2022/09/03 07:48:34;;;;;;;9.98;5.57;;;;;;;23.91;81.19;99964.69;5069267;28;20028;-32
2022/09/03 07:51:00;;;;;;;10.02;5.97;;;;;;;24.10;81.39;99966.41;5087310;28;20042;-40
2022/09/03 07:53:28;;;;;;;10.82;5.47;;;;;;;24.10;81.84;99966.41;5087330;28;20051;-34
2022/09/03 07:56:00;;;;;;;9.32;5.80;;;;;;;24.33;80.16;99967.97;5069050;28;20024;-29
2022/09/03 07:58:28;;;;;;;7.63;5.30;;;;;;;24.14;78.89;99967.41;5069074;28;20119;-29
2022/09/03 08:00:55;;;;;;;9.32;5.70;;;;;;;24.22;80.10;99964.72;5068963;28;20024;-33
2022/09/03 08:03:21;;;;;;;8.15;5.18;;;;;;;24.27;81.24;99961.88;5087024;28;20035;-32
2022/09/03 08:05:47;;;;;;;7.22;4.78;;;;;;;24.21;80.08;99948.66;5087042;28;20412;-28
2022/09/03 08:08:13;;;;;;;8.80;4.80;;;;;;;24.50;79.68;99952.84;5068981;28;20040;-33
2022/09/03 08:10:40;;;;;;;8.07;3.80;;;;;;;24.57;75.56;99950.47;5087332;28;20093;-31
2022/09/03 08:13:06;;;;;;;7.63;4.32;;;;;;;24.59;76.49;99967.31;5068597;28;20036;-28
2022/09/03 08:15:33;;;;;;;7.95;4.93;;;;;;;24.74;76.80;99963.34;5069193;28;20027;-31
2022/09/03 08:17:59;;;;;;;10.88;4.40;;;;;;;24.89;77.05;99959.38;5087094;28;20074;-30
2022/09/03 08:20:25;;;;;;;6.85;4.28;;;;;;;25.08;75.44;99965.34;5068966;28;20044;-31
2022/09/03 08:22:51;;;;;;;6.32;4.57;;;;;;;25.04;73.43;99950.75;5068092;28;20039;-30
2022/09/03 08:25:16;;;;;;;9.25;4.63;;;;;;;25.21;76.78;99950.81;5086867;28;20020;-29
2022/09/03 08:27:42;;;;;;;6.82;4.43;;;;;;;25.41;73.46;99957.53;5086746;28;20032;-28
2022/09/03 08:30:10;;;;;;;7.03;5.10;;;;;;;25.67;75.05;99956.75;5087186;28;20024;-28
2022/09/03 08:32:39;;;;;;;6.82;4.30;;;;;;;25.81;70.13;99951.09;5068975;28;20121;-31
2022/09/03 08:35:08;;;;;;;7.00;4.38;;;;;;;25.51;73.99;99955.63;5086971;28;20792;-29
2022/09/03 08:37:33;;;;;;;9.77;5.55;;;;;;;26.08;73.65;99958.16;5068758;28;20177;-28
2022/09/03 08:39:59;;;;;;;7.53;5.25;;;;;;;26.08;72.33;99951.88;5087060;28;20115;-28
2022/09/03 08:42:37;;;;;;;7.07;5.07;;;;;;;25.79;71.27;99950.63;5086943;28;20588;-32
2022/09/03 08:45:07;;;;;;;9.10;5.65;;;;;;;25.83;70.50;99967.97;5068230;28;20423;-35
2022/09/03 08:47:47;;;;;;;10.15;5.50;;;;;;;25.74;71.13;99967.97;5087268;28;20040;-28
2022/09/03 08:50:29;;;;;;;8.10;5.05;;;;;;;25.75;74.34;99969.59;5068713;28;20475;-30
2022/09/03 08:53:25;;;;;;;9.93;5.68;;;;;;;26.01;69.42;99960.56;5068685;28;20036;-29
2022/09/03 08:56:01;;;;;;;8.68;5.18;;;;;;;26.23;68.92;99967.75;5069002;28;20124;-34
2022/09/03 08:58:31;;;;;;;9.02;6.15;;;;;;;26.40;69.87;99956.75;5068711;28;20043;-30
2022/09/03 09:01:10;;;;;;;8.77;5.28;;;;;;;26.64;69.40;99944.44;5086684;28;20036;-31
2022/09/03 09:04:11;;;;;;;7.80;5.55;;;;;;;26.88;68.16;99954.78;5069066;28;20063;-30
2022/09/03 09:06:53;;;;;;;8.40;5.15;;;;;;;26.56;68.29;99935.13;5068819;28;20085;-31
2022/09/03 09:09:40;;;;;;;8.13;5.00;;;;;;;26.62;66.09;99930.28;5086518;28;20028;-31
2022/09/03 09:12:18;;;;;;;7.80;5.55;;;;;;;27.02;69.11;99938.09;5068588;28;20046;-36
2022/09/03 09:14:55;;;;;;;9.55;5.70;;;;;;;27.29;67.38;99946.97;5087050;28;20036;-28
2022/09/03 09:17:31;;;;;;;9.07;5.70;;;;;;;27.08;65.36;99946.94;5086588;28;20028;-34
2022/09/03 09:20:16;;;;;;;9.88;5.80;;;;;;;27.12;62.61;99932.25;5068523;28;20190;-29
2022/09/03 09:23:00;;;;;;;11.18;5.93;;;;;;;27.20;62.61;99925.91;5068285;28;20036;-29
2022/09/03 09:25:25;;;;;;;9.18;5.82;;;;;;;27.35;60.87;99934.66;5068443;28;20028;-29
2022/09/03 09:28:00;;;;;;;8.55;5.93;;;;;;;27.60;61.46;99936.41;5086498;28;20039;-37
2022/09/03 09:30:29;;;;;;;7.40;5.20;;;;;;;27.44;61.62;99927.16;5086766;28;20032;-29
2022/09/03 09:32:55;;;;;;;7.10;4.30;;;;;;;27.93;60.92;99940.28;5069199;28;20525;-31
2022/09/03 09:35:21;;;;;;;8.73;5.40;;;;;;;27.81;59.96;99955.53;5071647;28;20032;-31
2022/09/03 09:37:51;;;;;;;6.72;4.70;;;;;;;27.55;59.26;99949.50;5071726;28;20031;-35
2022/09/03 09:40:32;;;;;;;7.15;5.22;;;;;;;27.64;61.41;99959.25;5071808;28;20039;-29
2022/09/03 09:43:10;;;;;;;7.00;4.45;;;;;;;27.91;60.32;99940.63;5071648;28;20031;-29
2022/09/03 09:45:40;;;;;;;6.75;4.47;;;;;;;28.10;59.94;99953.00;5071461;28;20094;-29
2022/09/03 09:48:15;;;;;;;9.45;5.13;;;;;;;28.21;60.30;99952.22;5089813;28;20024;-29
2022/09/03 09:50:41;;;;;;;8.02;4.90;;;;;;;28.29;56.41;99941.50;5071351;28;20097;-29
2022/09/03 09:53:16;;;;;;;7.65;5.60;;;;;;;28.37;56.42;99935.88;5089220;28;20032;-28
2022/09/03 09:55:55;;;;;;;7.43;4.97;;;;;;;27.97;56.88;99939.28;5071488;28;20889;-34
2022/09/03 09:58:23;;;;;;;6.75;5.10;;;;;;;28.30;56.51;99954.88;5071445;28;20020;-31
2022/09/03 10:01:21;;;;;;;9.27;5.40;;;;;;;28.18;55.57;99954.84;5054849;28;20089;-33
2022/09/03 10:03:58;;;;;;;7.03;4.78;;;;;;;27.95;56.80;99933.34;5088711;28;20040;-28
2022/09/03 10:09:16;;;;;;;10.00;4.70;;;;;;;28.12;54.09;99945.25;5089481;28;19969;-35
2022/09/03 10:12:05;;;;;;;7.28;5.22;;;;;;;28.63;54.10;99954.00;5071211;28;20040;-29
2022/09/03 10:14:48;;;;;;;8.13;5.05;;;;;;;28.68;51.74;99942.78;5076287;28;20028;-32
2022/09/03 10:17:24;;;;;;;7.03;4.70;;;;;;;28.95;50.94;99943.19;5089359;28;20061;-28
2022/09/03 10:20:26;;;;;;;9.85;5.38;;;;;;;29.13;53.61;99941.81;5070961;28;20032;-28
2022/09/03 10:22:56;;;;;;;8.80;5.63;;;;;;;29.50;52.29;99925.22;5089324;28;20119;-29
2022/09/03 10:25:26;;;;;;;9.15;5.30;;;;;;;29.63;49.70;99929.53;5089204;28;20067;-28
2022/09/03 10:27:53;;;;;;;8.23;5.85;;;;;;;29.76;50.28;99937.72;5089026;28;20084;-34
2022/09/03 10:30:19;;;;;;;7.68;5.30;;;;;;;29.67;48.30;99929.63;5070832;28;20495;-32
2022/09/03 10:33:14;;;;;;;9.20;5.47;;;;;;;29.83;50.34;99936.00;5070468;28;20038;-29
2022/09/03 10:35:51;;;;;;;8.35;5.10;;;;;;;30.05;50.44;99939.28;5070832;28;20036;-32
2022/09/03 10:38:25;;;;;;;7.93;5.45;;;;;;;29.81;48.57;99934.72;5088899;28;20107;-33
2022/09/03 10:41:09;;;;;;;9.98;6.18;;;;;;;29.36;48.54;99924.81;5070994;28;20430;-31
2022/09/03 10:43:50;;;;;;;8.23;6.03;;;;;;;29.67;50.68;99917.81;5089044;28;20036;-31
2022/09/03 10:46:21;;;;;;;7.18;5.75;;;;;;;29.69;51.37;99923.75;5069725;28;20875;-31
2022/09/03 10:49:12;;;;;;;8.40;5.97;;;;;;;29.69;48.81;99921.00;5070556;28;20412;-30
2022/09/03 10:51:48;;;;;;;8.05;6.22;;;;;;;30.13;50.55;99912.78;5088529;28;20055;-39
2022/09/03 10:54:33;;;;;;;8.77;5.75;;;;;;;30.26;46.95;99928.03;5070546;28;20031;-31
2022/09/03 10:57:07;;;;;;;7.43;5.63;;;;;;;30.54;44.59;99927.16;5088718;28;20131;-35
2022/09/03 10:59:41;;;;;;;6.88;5.28;;;;;;;30.85;45.06;99923.53;5070405;28;20116;-29
2022/09/03 11:02:43;;;;;;;11.77;6.40;;;;;;;31.00;47.95;99919.19;5088398;28;20035;-30
2022/09/03 11:05:20;;;;;;;8.77;6.13;;;;;;;30.73;45.29;99920.88;5088293;28;20416;-30
2022/09/03 11:07:52;;;;;;;8.40;5.85;;;;;;;30.36;46.98;99921.22;5070117;28;20028;-31
2022/09/03 11:10:25;;;;;;;7.10;5.40;;;;;;;30.02;46.22;99899.56;5088117;28;20028;-28
2022/09/03 11:13:06;;;;;;;9.30;6.28;;;;;;;30.96;46.63;99915.56;5070141;28;20028;-29
2022/09/03 11:15:40;;;;;;;9.18;5.60;;;;;;;31.22;44.39;99915.72;5069832;28;20032;-29
2022/09/03 11:18:26;;;;;;;8.70;5.45;;;;;;;31.94;46.18;99919.06;5088329;28;20036;-28
2022/09/03 11:20:59;;;;;;;8.70;5.43;;;;;;;31.92;44.83;99911.16;5069560;28;20039;-29
2022/09/03 11:23:27;;;;;;;7.13;5.30;;;;;;;32.32;43.81;99925.63;5088059;28;20096;-29
2022/09/03 11:25:57;;;;;;;10.60;5.68;;;;;;;32.13;43.48;99923.75;5069640;28;20027;-30
2022/09/03 11:28:32;;;;;;;7.40;5.25;;;;;;;32.07;42.45;99916.94;5069461;28;20135;-32
2022/09/03 11:31:03;;;;;;;10.38;5.25;;;;;;;32.07;42.57;99923.25;5087860;28;20123;-28
2022/09/03 11:33:33;;;;;;;6.90;4.57;;;;;;;32.16;40.77;99923.00;5087843;28;20547;-33
2022/09/03 11:36:00;;;;;;;7.65;5.60;;;;;;;32.27;41.75;99912.94;5069652;28;20034;-29
2022/09/03 11:38:32;;;;;;;7.25;5.00;;;;;;;32.01;42.11;99924.72;5069378;28;20036;-31
2022/09/03 11:40:58;;;;;;;8.38;5.55;;;;;;;32.23;43.97;99923.91;5088095;28;20153;-29
2022/09/03 11:43:23;;;;;;;6.18;4.80;;;;;;;32.10;42.51;99925.28;5087087;28;20130;-32
2022/09/03 11:46:01;;;;;;;8.13;4.63;;;;;;;31.60;42.64;99914.09;5087218;28;20198;-32